createdAt,value
2018-07-07T00:01:06.179Z,20.70
2018-07-07T00:03:36.834Z,20.60
2018-07-07T00:06:07.250Z,17.50
2018-07-07T00:08:38.286Z,20.70
2018-07-07T00:11:09.890Z,22.60
2018-07-07T00:13:40.313Z,20.60
2018-07-07T00:16:10.701Z,20.60
2018-07-07T00:18:41.257Z,20.30
2018-07-07T00:21:14.106Z,20.30
2018-07-07T00:23:44.444Z,20.30
2018-07-07T00:26:16.809Z,20.30
2018-07-07T00:28:47.332Z,20.30
2018-07-07T00:31:22.466Z,20.30
2018-07-07T00:33:53.298Z,20.30
2018-07-07T00:36:28.578Z,20.20
2018-07-07T00:38:59.478Z,20.00
2018-07-07T00:41:30.298Z,20.10
2018-07-07T00:44:00.773Z,19.90
2018-07-07T00:46:31.055Z,19.80
2018-07-07T00:55:04.343Z,19.80
2018-07-07T01:05:05.212Z,19.80
2018-07-07T01:10:07.104Z,19.60
2018-07-07T01:12:38.109Z,19.70
2018-07-07T01:20:08.669Z,19.60
2018-07-07T01:35:09.182Z,19.60
2018-07-07T01:42:39.245Z,19.60
2018-07-07T01:50:09.739Z,19.60
2018-07-07T01:57:40.864Z,19.40
2018-07-07T02:12:39.650Z,19.10
2018-07-07T03:05:05.306Z,18.80
2018-07-07T03:25:04.033Z,18.70
2018-07-07T03:32:34.339Z,18.60
2018-07-07T03:35:04.798Z,18.60
2018-07-07T04:42:34.467Z,19.40
2018-07-07T04:47:35.351Z,19.60
2018-07-07T04:50:05.811Z,19.80
2018-07-07T04:52:36.577Z,19.90
2018-07-07T04:55:07.123Z,20.10
2018-07-07T04:57:37.414Z,20.10
2018-07-07T05:00:08.019Z,20.20
2018-07-07T05:02:38.305Z,20.20
2018-07-07T05:05:08.694Z,20.80
2018-07-07T05:07:39.130Z,21.10
2018-07-07T05:22:38.109Z,23.60
2018-07-07T05:27:38.563Z,24.30
2018-07-07T05:30:09.293Z,24.20
2018-07-07T05:35:09.332Z,24.20
2018-07-07T05:47:40.385Z,25.90
2018-07-07T05:50:10.879Z,25.90
2018-07-07T05:52:41.313Z,26.20
2018-07-07T05:55:12.583Z,26.30
2018-07-07T05:57:43.099Z,26.80
2018-07-07T06:00:14.038Z,26.70
2018-07-07T06:02:44.595Z,27.80
2018-07-07T06:05:15.005Z,27.60
2018-07-07T06:07:45.452Z,27.90
2018-07-07T06:10:15.982Z,28.50
2018-07-07T06:12:46.645Z,28.70
2018-07-07T06:15:17.170Z,28.40
2018-07-07T06:17:47.519Z,28.10
2018-07-07T06:20:18.281Z,28.40
2018-07-07T06:22:48.646Z,28.60
2018-07-07T06:25:19.041Z,28.70
2018-07-07T06:27:49.365Z,28.90
2018-07-07T06:30:19.707Z,28.90
2018-07-07T06:32:50.620Z,27.80
2018-07-07T06:35:20.963Z,29.40
2018-07-07T06:37:51.640Z,29.20
2018-07-07T06:40:22.006Z,29.20
2018-07-07T06:42:52.768Z,28.20
2018-07-07T06:45:23.272Z,27.80
2018-07-07T06:47:54.206Z,27.40
2018-07-07T06:50:24.681Z,26.90
2018-07-07T06:52:55.482Z,26.60
2018-07-07T06:55:25.837Z,26.00
2018-07-07T06:57:59.287Z,25.60
2018-07-07T07:02:59.775Z,28.40
2018-07-07T07:05:30.248Z,26.00
2018-07-07T07:10:31.105Z,25.90
2018-07-07T07:13:01.617Z,25.50
2018-07-07T07:25:33.239Z,24.30
2018-07-07T07:28:05.458Z,24.80
2018-07-07T07:30:36.627Z,24.70
2018-07-07T07:38:08.425Z,25.30
2018-07-07T07:58:16.860Z,25.00
2018-07-07T08:00:51.437Z,25.00
2018-07-07T08:03:24.575Z,27.00
2018-07-07T08:16:27.338Z,24.10
2018-07-07T08:29:05.712Z,24.30
2018-07-07T08:34:08.357Z,25.30
2018-07-07T08:44:09.410Z,24.60
2018-07-07T09:11:54.162Z,23.60
2018-07-07T09:29:43.202Z,24.20
2018-07-07T09:32:15.981Z,24.50
2018-07-07T09:34:57.136Z,24.50
2018-07-07T09:37:28.734Z,23.90
2018-07-07T09:39:59.750Z,23.60
